sensor_id;sensor_type;location;lat;lon;timestamp;P1;durP1;ratioP1;P2;durP2;ratioP2
70667;SDS011;58242;51.250;-1.118;2022-07-24T00:00:14;3.75;;;2.97;;
70667;SDS011;58242;51.250;-1.118;2022-07-24T00:02:40;2.38;;;2.17;;
70667;SDS011;58242;51.250;-1.118;2022-07-24T00:05:07;3.95;;;2.83;;
70667;SDS011;58242;51.250;-1.118;2022-07-24T00:07:33;4.65;;;3.08;;
70667;SDS011;58242;51.250;-1.118;2022-07-24T00:09:59;4.55;;;3.45;;
70667;SDS011;58242;51.250;-1.118;2022-07-24T00:12:25;3.58;;;2.95;;
70667;SDS011;58242;51.250;-1.118;2022-07-24T00:14:50;4.50;;;2.95;;
70667;SDS011;58242;51.250;-1.118;2022-07-24T00:17:16;4.03;;;3.53;;
70667;SDS011;58242;51.250;-1.118;2022-07-24T00:19:41;3.38;;;2.72;;
70667;SDS011;58242;51.250;-1.118;2022-07-24T00:22:07;2.40;;;2.20;;
70667;SDS011;58242;51.250;-1.118;2022-07-24T00:24:32;2.65;;;2.45;;
70667;SDS011;58242;51.250;-1.118;2022-07-24T00:26:57;3.40;;;3.10;;
70667;SDS011;58242;51.250;-1.118;2022-07-24T00:29:23;3.88;;;2.47;;
70667;SDS011;58242;51.250;-1.118;2022-07-24T00:31:48;3.42;;;2.90;;
70667;SDS011;58242;51.250;-1.118;2022-07-24T00:34:14;4.30;;;3.03;;
70667;SDS011;58242;51.250;-1.118;2022-07-24T00:36:39;3.30;;;2.75;;
70667;SDS011;58242;51.250;-1.118;2022-07-24T00:39:08;6.57;;;3.28;;
70667;SDS011;58242;51.250;-1.118;2022-07-24T00:41:33;4.30;;;3.05;;
70667;SDS011;58242;51.250;-1.118;2022-07-24T00:46:35;4.30;;;3.28;;
70667;SDS011;58242;51.250;-1.118;2022-07-24T00:49:05;4.00;;;2.67;;
70667;SDS011;58242;51.250;-1.118;2022-07-24T00:51:33;4.07;;;3.03;;
70667;SDS011;58242;51.250;-1.118;2022-07-24T00:53:59;4.28;;;2.78;;
70667;SDS011;58242;51.250;-1.118;2022-07-24T00:56:24;2.92;;;2.42;;
70667;SDS011;58242;51.250;-1.118;2022-07-24T00:58:50;4.70;;;2.95;;
70667;SDS011;58242;51.250;-1.118;2022-07-24T01:01:16;4.57;;;3.15;;
70667;SDS011;58242;51.250;-1.118;2022-07-24T01:03:43;2.97;;;2.63;;
70667;SDS011;58242;51.250;-1.118;2022-07-24T01:06:09;5.70;;;3.20;;
70667;SDS011;58242;51.250;-1.118;2022-07-24T01:08:35;3.75;;;3.10;;
70667;SDS011;58242;51.250;-1.118;2022-07-24T01:11:02;6.22;;;3.00;;
70667;SDS011;58242;51.250;-1.118;2022-07-24T01:13:29;3.30;;;3.08;;
70667;SDS011;58242;51.250;-1.118;2022-07-24T01:15:55;5.18;;;3.05;;
70667;SDS011;58242;51.250;-1.118;2022-07-24T01:18:21;3.63;;;3.33;;
70667;SDS011;58242;51.250;-1.118;2022-07-24T01:20:46;6.05;;;3.50;;
70667;SDS011;58242;51.250;-1.118;2022-07-24T01:23:12;3.80;;;3.28;;
70667;SDS011;58242;51.250;-1.118;2022-07-24T01:25:39;5.18;;;3.25;;
70667;SDS011;58242;51.250;-1.118;2022-07-24T01:28:04;5.65;;;3.75;;
70667;SDS011;58242;51.250;-1.118;2022-07-24T01:30:30;5.85;;;3.30;;
70667;SDS011;58242;51.250;-1.118;2022-07-24T01:32:55;4.50;;;3.53;;
70667;SDS011;58242;51.250;-1.118;2022-07-24T01:35:20;4.40;;;2.95;;
70667;SDS011;58242;51.250;-1.118;2022-07-24T01:37:46;4.90;;;3.38;;
70667;SDS011;58242;51.250;-1.118;2022-07-24T01:40:11;3.40;;;3.10;;
70667;SDS011;58242;51.250;-1.118;2022-07-24T01:42:37;5.90;;;3.38;;
70667;SDS011;58242;51.250;-1.118;2022-07-24T01:45:02;3.63;;;3.10;;
70667;SDS011;58242;51.250;-1.118;2022-07-24T01:47:28;5.82;;;3.67;;
70667;SDS011;58242;51.250;-1.118;2022-07-24T01:49:53;3.50;;;3.20;;
70667;SDS011;58242;51.250;-1.118;2022-07-24T01:52:19;5.70;;;3.33;;
70667;SDS011;58242;51.250;-1.118;2022-07-24T01:54:44;3.85;;;3.47;;
70667;SDS011;58242;51.250;-1.118;2022-07-24T01:57:10;3.20;;;3.00;;
70667;SDS011;58242;51.250;-1.118;2022-07-24T01:59:35;3.40;;;3.10;;
70667;SDS011;58242;51.250;-1.118;2022-07-24T02:02:01;3.78;;;3.47;;
70667;SDS011;58242;51.250;-1.118;2022-07-24T02:04:26;6.28;;;3.08;;
70667;SDS011;58242;51.250;-1.118;2022-07-24T02:06:52;3.65;;;3.35;;
70667;SDS011;58242;51.250;-1.118;2022-07-24T02:09:17;3.72;;;3.08;;
70667;SDS011;58242;51.250;-1.118;2022-07-24T02:11:42;4.40;;;3.53;;
70667;SDS011;58242;51.250;-1.118;2022-07-24T02:14:08;7.00;;;3.80;;
70667;SDS011;58242;51.250;-1.118;2022-07-24T02:16:33;4.20;;;2.90;;
70667;SDS011;58242;51.250;-1.118;2022-07-24T02:18:59;4.90;;;3.30;;
70667;SDS011;58242;51.250;-1.118;2022-07-24T02:21:24;2.90;;;2.63;;
70667;SDS011;58242;51.250;-1.118;2022-07-24T02:23:50;3.72;;;3.10;;
70667;SDS011;58242;51.250;-1.118;2022-07-24T02:26:15;4.13;;;3.30;;
70667;SDS011;58242;51.250;-1.118;2022-07-24T02:28:41;4.82;;;3.55;;
70667;SDS011;58242;51.250;-1.118;2022-07-24T02:31:06;5.65;;;3.33;;
70667;SDS011;58242;51.250;-1.118;2022-07-24T02:33:32;4.32;;;3.45;;
70667;SDS011;58242;51.250;-1.118;2022-07-24T02:35:57;4.25;;;3.15;;
70667;SDS011;58242;51.250;-1.118;2022-07-24T02:38:23;6.75;;;3.50;;
70667;SDS011;58242;51.250;-1.118;2022-07-24T02:40:48;4.97;;;3.25;;
70667;SDS011;58242;51.250;-1.118;2022-07-24T02:43:14;7.28;;;3.88;;
70667;SDS011;58242;51.250;-1.118;2022-07-24T02:45:39;6.10;;;3.45;;
70667;SDS011;58242;51.250;-1.118;2022-07-24T02:48:04;4.95;;;3.78;;
70667;SDS011;58242;51.250;-1.118;2022-07-24T02:50:31;5.05;;;3.58;;
70667;SDS011;58242;51.250;-1.118;2022-07-24T02:52:57;4.45;;;3.42;;
70667;SDS011;58242;51.250;-1.118;2022-07-24T02:55:23;4.05;;;3.13;;
70667;SDS011;58242;51.250;-1.118;2022-07-24T02:57:49;4.35;;;3.70;;
70667;SDS011;58242;51.250;-1.118;2022-07-24T03:00:15;4.95;;;3.92;;
70667;SDS011;58242;51.250;-1.118;2022-07-24T03:02:42;7.30;;;3.83;;
70667;SDS011;58242;51.250;-1.118;2022-07-24T03:05:07;5.95;;;3.13;;
70667;SDS011;58242;51.250;-1.118;2022-07-24T03:07:33;4.85;;;3.85;;
70667;SDS011;58242;51.250;-1.118;2022-07-24T03:10:01;5.50;;;3.80;;
70667;SDS011;58242;51.250;-1.118;2022-07-24T03:12:28;3.63;;;3.33;;
70667;SDS011;58242;51.250;-1.118;2022-07-24T03:14:53;5.13;;;3.75;;
70667;SDS011;58242;51.250;-1.118;2022-07-24T03:17:19;5.75;;;3.78;;
70667;SDS011;58242;51.250;-1.118;2022-07-24T03:19:44;4.60;;;3.40;;
70667;SDS011;58242;51.250;-1.118;2022-07-24T03:22:09;9.25;;;3.92;;
70667;SDS011;58242;51.250;-1.118;2022-07-24T03:24:35;4.68;;;3.45;;
70667;SDS011;58242;51.250;-1.118;2022-07-24T03:27:00;5.50;;;3.42;;
70667;SDS011;58242;51.250;-1.118;2022-07-24T03:29:26;4.45;;;3.30;;
70667;SDS011;58242;51.250;-1.118;2022-07-24T03:31:51;5.15;;;3.25;;
70667;SDS011;58242;51.250;-1.118;2022-07-24T03:34:17;8.00;;;3.15;;
70667;SDS011;58242;51.250;-1.118;2022-07-24T03:36:42;4.32;;;3.53;;
70667;SDS011;58242;51.250;-1.118;2022-07-24T03:39:08;6.60;;;3.50;;
70667;SDS011;58242;51.250;-1.118;2022-07-24T03:41:33;4.40;;;3.15;;
70667;SDS011;58242;51.250;-1.118;2022-07-24T03:43:59;3.97;;;3.20;;
70667;SDS011;58242;51.250;-1.118;2022-07-24T03:46:24;4.47;;;3.08;;
70667;SDS011;58242;51.250;-1.118;2022-07-24T03:48:49;4.97;;;3.13;;
70667;SDS011;58242;51.250;-1.118;2022-07-24T03:51:15;6.47;;;3.25;;
70667;SDS011;58242;51.250;-1.118;2022-07-24T03:53:40;3.00;;;2.80;;
70667;SDS011;58242;51.250;-1.118;2022-07-24T03:56:06;5.20;;;3.30;;
70667;SDS011;58242;51.250;-1.118;2022-07-24T03:58:33;4.60;;;3.13;;
70667;SDS011;58242;51.250;-1.118;2022-07-24T04:00:58;6.72;;;3.75;;
70667;SDS011;58242;51.250;-1.118;2022-07-24T04:03:24;3.85;;;3.40;;
70667;SDS011;58242;51.250;-1.118;2022-07-24T04:05:49;6.47;;;3.75;;
70667;SDS011;58242;51.250;-1.118;2022-07-24T04:08:14;5.70;;;3.40;;
70667;SDS011;58242;51.250;-1.118;2022-07-24T04:10:40;3.95;;;3.60;;
70667;SDS011;58242;51.250;-1.118;2022-07-24T04:13:05;3.95;;;3.50;;
70667;SDS011;58242;51.250;-1.118;2022-07-24T04:15:31;5.00;;;3.30;;
70667;SDS011;58242;51.250;-1.118;2022-07-24T04:17:56;5.65;;;3.45;;
70667;SDS011;58242;51.250;-1.118;2022-07-24T04:20:22;4.53;;;3.13;;
70667;SDS011;58242;51.250;-1.118;2022-07-24T04:22:47;3.45;;;3.15;;
70667;SDS011;58242;51.250;-1.118;2022-07-24T04:25:13;4.55;;;3.50;;
70667;SDS011;58242;51.250;-1.118;2022-07-24T04:27:38;7.60;;;3.90;;
70667;SDS011;58242;51.250;-1.118;2022-07-24T04:30:04;6.20;;;3.63;;
70667;SDS011;58242;51.250;-1.118;2022-07-24T04:32:30;3.47;;;3.17;;
70667;SDS011;58242;51.250;-1.118;2022-07-24T04:34:56;4.68;;;3.28;;
70667;SDS011;58242;51.250;-1.118;2022-07-24T04:37:21;6.18;;;3.75;;
70667;SDS011;58242;51.250;-1.118;2022-07-24T04:39:47;3.63;;;3.33;;
70667;SDS011;58242;51.250;-1.118;2022-07-24T04:42:12;3.42;;;3.13;;
70667;SDS011;58242;51.250;-1.118;2022-07-24T04:44:38;3.78;;;2.92;;
70667;SDS011;58242;51.250;-1.118;2022-07-24T04:47:03;4.22;;;3.20;;
70667;SDS011;58242;51.250;-1.118;2022-07-24T04:49:28;4.93;;;3.47;;
70667;SDS011;58242;51.250;-1.118;2022-07-24T04:51:54;5.03;;;3.13;;
70667;SDS011;58242;51.250;-1.118;2022-07-24T04:54:19;4.82;;;3.35;;
70667;SDS011;58242;51.250;-1.118;2022-07-24T04:56:44;3.47;;;3.28;;
70667;SDS011;58242;51.250;-1.118;2022-07-24T04:59:10;3.20;;;2.90;;
70667;SDS011;58242;51.250;-1.118;2022-07-24T05:01:35;4.70;;;3.13;;
70667;SDS011;58242;51.250;-1.118;2022-07-24T05:04:00;5.13;;;3.20;;
70667;SDS011;58242;51.250;-1.118;2022-07-24T05:06:26;7.50;;;3.88;;
70667;SDS011;58242;51.250;-1.118;2022-07-24T05:08:51;3.63;;;3.33;;
70667;SDS011;58242;51.250;-1.118;2022-07-24T05:11:17;5.10;;;3.55;;
70667;SDS011;58242;51.250;-1.118;2022-07-24T05:13:42;4.50;;;3.08;;
70667;SDS011;58242;51.250;-1.118;2022-07-24T05:16:07;5.78;;;3.35;;
70667;SDS011;58242;51.250;-1.118;2022-07-24T05:18:33;6.53;;;3.22;;
70667;SDS011;58242;51.250;-1.118;2022-07-24T05:20:58;3.22;;;2.92;;
70667;SDS011;58242;51.250;-1.118;2022-07-24T05:23:24;4.72;;;2.75;;
70667;SDS011;58242;51.250;-1.118;2022-07-24T05:25:49;3.47;;;2.90;;
70667;SDS011;58242;51.250;-1.118;2022-07-24T05:28:15;3.40;;;2.92;;
70667;SDS011;58242;51.250;-1.118;2022-07-24T05:30:41;4.38;;;3.28;;
70667;SDS011;58242;51.250;-1.118;2022-07-24T05:33:06;3.55;;;3.03;;
70667;SDS011;58242;51.250;-1.118;2022-07-24T05:35:31;5.22;;;2.92;;
70667;SDS011;58242;51.250;-1.118;2022-07-24T05:37:57;2.67;;;2.38;;
70667;SDS011;58242;51.250;-1.118;2022-07-24T05:40:22;2.75;;;2.55;;
70667;SDS011;58242;51.250;-1.118;2022-07-24T05:42:47;3.38;;;2.60;;
70667;SDS011;58242;51.250;-1.118;2022-07-24T05:45:13;3.90;;;3.17;;
70667;SDS011;58242;51.250;-1.118;2022-07-24T05:47:38;5.53;;;2.92;;
70667;SDS011;58242;51.250;-1.118;2022-07-24T05:50:06;4.72;;;3.13;;
70667;SDS011;58242;51.250;-1.118;2022-07-24T05:52:33;3.63;;;2.75;;
70667;SDS011;58242;51.250;-1.118;2022-07-24T05:54:59;5.68;;;3.22;;
70667;SDS011;58242;51.250;-1.118;2022-07-24T05:57:24;4.25;;;2.78;;
70667;SDS011;58242;51.250;-1.118;2022-07-24T05:59:49;4.82;;;3.20;;
70667;SDS011;58242;51.250;-1.118;2022-07-24T06:02:15;2.83;;;2.58;;
70667;SDS011;58242;51.250;-1.118;2022-07-24T06:04:40;3.30;;;3.00;;
70667;SDS011;58242;51.250;-1.118;2022-07-24T06:07:09;3.17;;;2.67;;
70667;SDS011;58242;51.250;-1.118;2022-07-24T06:09:35;4.15;;;3.28;;
70667;SDS011;58242;51.250;-1.118;2022-07-24T06:12:01;5.15;;;3.10;;
70667;SDS011;58242;51.250;-1.118;2022-07-24T06:14:27;5.85;;;3.30;;
70667;SDS011;58242;51.250;-1.118;2022-07-24T06:16:52;3.80;;;3.03;;
70667;SDS011;58242;51.250;-1.118;2022-07-24T06:19:18;3.95;;;2.58;;
70667;SDS011;58242;51.250;-1.118;2022-07-24T06:21:43;5.80;;;3.35;;
70667;SDS011;58242;51.250;-1.118;2022-07-24T06:24:08;3.05;;;2.50;;
70667;SDS011;58242;51.250;-1.118;2022-07-24T06:26:34;3.30;;;2.30;;
70667;SDS011;58242;51.250;-1.118;2022-07-24T06:28:59;5.38;;;2.67;;
70667;SDS011;58242;51.250;-1.118;2022-07-24T06:31:25;2.90;;;2.58;;
70667;SDS011;58242;51.250;-1.118;2022-07-24T06:33:50;5.70;;;2.90;;
70667;SDS011;58242;51.250;-1.118;2022-07-24T06:36:15;2.83;;;2.50;;
70667;SDS011;58242;51.250;-1.118;2022-07-24T06:38:41;2.83;;;2.47;;
70667;SDS011;58242;51.250;-1.118;2022-07-24T06:41:06;2.30;;;2.10;;
70667;SDS011;58242;51.250;-1.118;2022-07-24T06:43:31;3.95;;;2.88;;
70667;SDS011;58242;51.250;-1.118;2022-07-24T06:45:57;4.22;;;2.10;;
70667;SDS011;58242;51.250;-1.118;2022-07-24T06:48:22;3.63;;;2.25;;
70667;SDS011;58242;51.250;-1.118;2022-07-24T06:50:47;1.85;;;1.75;;
70667;SDS011;58242;51.250;-1.118;2022-07-24T06:53:13;5.25;;;2.40;;
70667;SDS011;58242;51.250;-1.118;2022-07-24T06:55:38;3.38;;;2.55;;
70667;SDS011;58242;51.250;-1.118;2022-07-24T06:58:04;2.42;;;2.20;;
70667;SDS011;58242;51.250;-1.118;2022-07-24T07:00:29;4.47;;;2.50;;
70667;SDS011;58242;51.250;-1.118;2022-07-24T07:02:54;3.15;;;2.30;;
70667;SDS011;58242;51.250;-1.118;2022-07-24T07:05:20;7.00;;;2.40;;
70667;SDS011;58242;51.250;-1.118;2022-07-24T07:07:45;2.80;;;2.22;;
70667;SDS011;58242;51.250;-1.118;2022-07-24T07:10:11;3.10;;;2.30;;
70667;SDS011;58242;51.250;-1.118;2022-07-24T07:12:36;2.75;;;2.22;;
70667;SDS011;58242;51.250;-1.118;2022-07-24T07:15:02;2.30;;;2.13;;
70667;SDS011;58242;51.250;-1.118;2022-07-24T07:17:29;2.33;;;2.10;;
70667;SDS011;58242;51.250;-1.118;2022-07-24T07:19:55;4.35;;;2.58;;
70667;SDS011;58242;51.250;-1.118;2022-07-24T07:22:20;2.95;;;2.30;;
70667;SDS011;58242;51.250;-1.118;2022-07-24T07:24:45;2.35;;;1.88;;
70667;SDS011;58242;51.250;-1.118;2022-07-24T07:27:11;2.38;;;2.08;;
70667;SDS011;58242;51.250;-1.118;2022-07-24T07:29:36;1.85;;;1.73;;
70667;SDS011;58242;51.250;-1.118;2022-07-24T07:32:02;4.38;;;2.63;;
70667;SDS011;58242;51.250;-1.118;2022-07-24T07:34:27;4.20;;;2.38;;
70667;SDS011;58242;51.250;-1.118;2022-07-24T07:36:53;6.03;;;2.50;;
70667;SDS011;58242;51.250;-1.118;2022-07-24T07:39:18;3.17;;;2.25;;
70667;SDS011;58242;51.250;-1.118;2022-07-24T07:41:43;2.47;;;2.28;;
70667;SDS011;58242;51.250;-1.118;2022-07-24T07:44:09;1.95;;;1.80;;
70667;SDS011;58242;51.250;-1.118;2022-07-24T07:46:34;1.95;;;1.85;;
70667;SDS011;58242;51.250;-1.118;2022-07-24T07:49:00;4.07;;;2.17;;
70667;SDS011;58242;51.250;-1.118;2022-07-24T07:51:25;3.50;;;2.08;;
70667;SDS011;58242;51.250;-1.118;2022-07-24T07:53:50;2.50;;;2.08;;
70667;SDS011;58242;51.250;-1.118;2022-07-24T07:56:16;3.28;;;2.28;;
70667;SDS011;58242;51.250;-1.118;2022-07-24T07:58:41;4.05;;;2.63;;
70667;SDS011;58242;51.250;-1.118;2022-07-24T08:01:07;2.53;;;2.30;;
70667;SDS011;58242;51.250;-1.118;2022-07-24T08:03:32;3.53;;;2.28;;
70667;SDS011;58242;51.250;-1.118;2022-07-24T08:05:57;3.28;;;2.05;;
70667;SDS011;58242;51.250;-1.118;2022-07-24T08:08:25;4.13;;;2.30;;
70667;SDS011;58242;51.250;-1.118;2022-07-24T08:10:50;2.75;;;2.10;;
70667;SDS011;58242;51.250;-1.118;2022-07-24T08:13:16;3.00;;;2.65;;
70667;SDS011;58242;51.250;-1.118;2022-07-24T08:15:43;2.58;;;2.00;;
70667;SDS011;58242;51.250;-1.118;2022-07-24T08:18:09;5.18;;;2.55;;
70667;SDS011;58242;51.250;-1.118;2022-07-24T08:20:35;4.85;;;2.45;;
70667;SDS011;58242;51.250;-1.118;2022-07-24T08:23:01;3.63;;;2.20;;
70667;SDS011;58242;51.250;-1.118;2022-07-24T08:25:26;2.20;;;2.00;;
70667;SDS011;58242;51.250;-1.118;2022-07-24T08:27:52;1.90;;;1.80;;
70667;SDS011;58242;51.250;-1.118;2022-07-24T08:30:17;1.75;;;1.65;;
70667;SDS011;58242;51.250;-1.118;2022-07-24T08:32:43;2.28;;;2.08;;
70667;SDS011;58242;51.250;-1.118;2022-07-24T08:35:08;1.83;;;1.73;;
70667;SDS011;58242;51.250;-1.118;2022-07-24T08:37:38;1.92;;;1.75;;
70667;SDS011;58242;51.250;-1.118;2022-07-24T08:40:05;3.33;;;2.15;;
70667;SDS011;58242;51.250;-1.118;2022-07-24T08:42:31;1.63;;;1.52;;
70667;SDS011;58242;51.250;-1.118;2022-07-24T08:44:57;3.17;;;2.13;;
70667;SDS011;58242;51.250;-1.118;2022-07-24T08:47:23;3.05;;;2.30;;
70667;SDS011;58242;51.250;-1.118;2022-07-24T08:49:50;3.03;;;2.00;;
70667;SDS011;58242;51.250;-1.118;2022-07-24T08:52:19;2.85;;;2.20;;
70667;SDS011;58242;51.250;-1.118;2022-07-24T08:54:46;2.30;;;2.05;;
70667;SDS011;58242;51.250;-1.118;2022-07-24T08:57:12;2.00;;;1.90;;
70667;SDS011;58242;51.250;-1.118;2022-07-24T08:59:37;1.70;;;1.60;;
70667;SDS011;58242;51.250;-1.118;2022-07-24T09:02:03;2.00;;;1.77;;
70667;SDS011;58242;51.250;-1.118;2022-07-24T09:04:32;2.92;;;1.98;;
70667;SDS011;58242;51.250;-1.118;2022-07-24T09:06:58;1.65;;;1.55;;
70667;SDS011;58242;51.250;-1.118;2022-07-24T09:09:25;1.52;;;1.42;;
70667;SDS011;58242;51.250;-1.118;2022-07-24T09:12:02;2.63;;;2.25;;
70667;SDS011;58242;51.250;-1.118;2022-07-24T09:14:32;2.20;;;1.95;;
70667;SDS011;58242;51.250;-1.118;2022-07-24T09:17:15;1.67;;;1.58;;
70667;SDS011;58242;51.250;-1.118;2022-07-24T09:22:12;1.90;;;1.80;;
70667;SDS011;58242;51.250;-1.118;2022-07-24T09:25:09;1.90;;;1.80;;
70667;SDS011;58242;51.250;-1.118;2022-07-24T09:27:45;2.15;;;1.55;;
70667;SDS011;58242;51.250;-1.118;2022-07-24T09:33:00;6.03;;;1.90;;
70667;SDS011;58242;51.250;-1.118;2022-07-24T09:35:33;2.55;;;1.60;;
70667;SDS011;58242;51.250;-1.118;2022-07-24T09:37:58;2.90;;;1.75;;
70667;SDS011;58242;51.250;-1.118;2022-07-24T09:40:29;2.95;;;1.67;;
70667;SDS011;58242;51.250;-1.118;2022-07-24T09:43:16;1.60;;;1.50;;
70667;SDS011;58242;51.250;-1.118;2022-07-24T09:45:53;2.13;;;1.73;;
70667;SDS011;58242;51.250;-1.118;2022-07-24T09:48:24;1.40;;;1.30;;
70667;SDS011;58242;51.250;-1.118;2022-07-24T09:53:26;1.98;;;1.77;;
70667;SDS011;58242;51.250;-1.118;2022-07-24T09:55:56;2.03;;;1.63;;
70667;SDS011;58242;51.250;-1.118;2022-07-24T09:58:33;7.55;;;1.95;;
70667;SDS011;58242;51.250;-1.118;2022-07-24T10:03:27;2.00;;;1.60;;
70667;SDS011;58242;51.250;-1.118;2022-07-24T10:08:21;1.70;;;1.60;;
70667;SDS011;58242;51.250;-1.118;2022-07-24T10:10:47;1.60;;;1.50;;
70667;SDS011;58242;51.250;-1.118;2022-07-24T10:13:14;6.43;;;1.63;;
70667;SDS011;58242;51.250;-1.118;2022-07-24T10:15:51;1.42;;;1.33;;
70667;SDS011;58242;51.250;-1.118;2022-07-24T10:18:19;1.48;;;1.38;;
70667;SDS011;58242;51.250;-1.118;2022-07-24T10:20:47;3.42;;;1.40;;
70667;SDS011;58242;51.250;-1.118;2022-07-24T10:23:20;1.35;;;1.23;;
70667;SDS011;58242;51.250;-1.118;2022-07-24T10:25:54;1.63;;;1.42;;
70667;SDS011;58242;51.250;-1.118;2022-07-24T10:28:40;2.67;;;1.20;;
70667;SDS011;58242;51.250;-1.118;2022-07-24T10:33:36;2.10;;;1.90;;
70667;SDS011;58242;51.250;-1.118;2022-07-24T10:36:04;3.85;;;1.70;;
70667;SDS011;58242;51.250;-1.118;2022-07-24T10:38:39;1.35;;;1.20;;
70667;SDS011;58242;51.250;-1.118;2022-07-24T10:41:09;1.60;;;1.17;;
70667;SDS011;58242;51.250;-1.118;2022-07-24T10:43:37;1.83;;;1.48;;
70667;SDS011;58242;51.250;-1.118;2022-07-24T10:48:37;4.15;;;1.88;;
70667;SDS011;58242;51.250;-1.118;2022-07-24T10:51:09;2.72;;;1.67;;
70667;SDS011;58242;51.250;-1.118;2022-07-24T11:09:13;1.45;;;1.35;;
70667;SDS011;58242;51.250;-1.118;2022-07-24T11:14:17;2.75;;;1.55;;
70667;SDS011;58242;51.250;-1.118;2022-07-24T11:16:47;2.58;;;1.58;;
70667;SDS011;58242;51.250;-1.118;2022-07-24T11:26:52;2.05;;;1.25;;
70667;SDS011;58242;51.250;-1.118;2022-07-24T11:29:28;1.65;;;1.50;;
70667;SDS011;58242;51.250;-1.118;2022-07-24T11:31:56;2.42;;;1.48;;
70667;SDS011;58242;51.250;-1.118;2022-07-24T11:34:23;1.30;;;1.20;;
70667;SDS011;58242;51.250;-1.118;2022-07-24T11:36:51;1.30;;;1.20;;
70667;SDS011;58242;51.250;-1.118;2022-07-24T11:39:20;1.52;;;1.00;;
70667;SDS011;58242;51.250;-1.118;2022-07-24T11:41:53;1.50;;;1.30;;
70667;SDS011;58242;51.250;-1.118;2022-07-24T11:46:50;1.20;;;1.10;;
70667;SDS011;58242;51.250;-1.118;2022-07-24T11:49:16;1.95;;;1.65;;
70667;SDS011;58242;51.250;-1.118;2022-07-24T11:51:42;1.83;;;1.73;;
70667;SDS011;58242;51.250;-1.118;2022-07-24T11:54:09;1.88;;;1.23;;
70667;SDS011;58242;51.250;-1.118;2022-07-24T11:56:36;1.50;;;1.40;;
70667;SDS011;58242;51.250;-1.118;2022-07-24T11:59:02;1.38;;;1.27;;
70667;SDS011;58242;51.250;-1.118;2022-07-24T12:01:27;1.25;;;1.15;;
70667;SDS011;58242;51.250;-1.118;2022-07-24T12:03:53;2.42;;;1.75;;
70667;SDS011;58242;51.250;-1.118;2022-07-24T12:06:22;1.40;;;1.30;;
70667;SDS011;58242;51.250;-1.118;2022-07-24T12:08:47;2.17;;;1.90;;
70667;SDS011;58242;51.250;-1.118;2022-07-24T12:11:22;1.80;;;1.30;;
70667;SDS011;58242;51.250;-1.118;2022-07-24T12:13:48;1.33;;;1.20;;
70667;SDS011;58242;51.250;-1.118;2022-07-24T12:16:23;1.33;;;1.23;;
70667;SDS011;58242;51.250;-1.118;2022-07-24T12:18:50;1.52;;;1.42;;
70667;SDS011;58242;51.250;-1.118;2022-07-24T12:21:15;3.35;;;1.55;;
70667;SDS011;58242;51.250;-1.118;2022-07-24T12:23:44;1.60;;;1.50;;
70667;SDS011;58242;51.250;-1.118;2022-07-24T12:26:11;2.38;;;1.70;;
70667;SDS011;58242;51.250;-1.118;2022-07-24T12:28:36;1.40;;;1.30;;
70667;SDS011;58242;51.250;-1.118;2022-07-24T12:31:05;1.35;;;1.25;;
70667;SDS011;58242;51.250;-1.118;2022-07-24T12:33:33;1.80;;;1.50;;
70667;SDS011;58242;51.250;-1.118;2022-07-24T12:43:27;1.42;;;1.40;;
70667;SDS011;58242;51.250;-1.118;2022-07-24T12:46:10;1.50;;;1.40;;
70667;SDS011;58242;51.250;-1.118;2022-07-24T12:48:36;1.63;;;1.50;;
70667;SDS011;58242;51.250;-1.118;2022-07-24T12:53:35;1.65;;;1.50;;
70667;SDS011;58242;51.250;-1.118;2022-07-24T13:01:14;1.60;;;1.50;;
70667;SDS011;58242;51.250;-1.118;2022-07-24T13:03:40;1.52;;;1.42;;
70667;SDS011;58242;51.250;-1.118;2022-07-24T13:06:06;1.65;;;1.55;;
70667;SDS011;58242;51.250;-1.118;2022-07-24T13:08:31;3.65;;;1.88;;
70667;SDS011;58242;51.250;-1.118;2022-07-24T13:10:56;2.25;;;2.00;;
70667;SDS011;58242;51.250;-1.118;2022-07-24T13:13:22;1.98;;;1.83;;
70667;SDS011;58242;51.250;-1.118;2022-07-24T13:15:47;1.88;;;1.77;;
70667;SDS011;58242;51.250;-1.118;2022-07-24T13:18:13;2.22;;;1.80;;
70667;SDS011;58242;51.250;-1.118;2022-07-24T13:20:38;2.33;;;1.88;;
70667;SDS011;58242;51.250;-1.118;2022-07-24T13:23:03;2.20;;;1.70;;
70667;SDS011;58242;51.250;-1.118;2022-07-24T13:25:29;2.15;;;1.77;;
70667;SDS011;58242;51.250;-1.118;2022-07-24T13:27:54;1.80;;;1.70;;
70667;SDS011;58242;51.250;-1.118;2022-07-24T13:30:20;1.38;;;1.30;;
70667;SDS011;58242;51.250;-1.118;2022-07-24T13:32:45;1.58;;;1.40;;
70667;SDS011;58242;51.250;-1.118;2022-07-24T13:35:10;1.92;;;1.30;;
70667;SDS011;58242;51.250;-1.118;2022-07-24T13:37:36;1.52;;;1.42;;
70667;SDS011;58242;51.250;-1.118;2022-07-24T13:40:02;1.42;;;1.33;;
70667;SDS011;58242;51.250;-1.118;2022-07-24T13:42:29;1.40;;;1.30;;
70667;SDS011;58242;51.250;-1.118;2022-07-24T13:44:56;1.90;;;1.55;;
70667;SDS011;58242;51.250;-1.118;2022-07-24T13:47:22;1.33;;;1.33;;
70667;SDS011;58242;51.250;-1.118;2022-07-24T13:49:47;2.03;;;1.65;;
70667;SDS011;58242;51.250;-1.118;2022-07-24T13:52:12;1.83;;;1.73;;
70667;SDS011;58242;51.250;-1.118;2022-07-24T13:54:38;1.38;;;1.38;;
70667;SDS011;58242;51.250;-1.118;2022-07-24T13:57:03;1.90;;;1.60;;
70667;SDS011;58242;51.250;-1.118;2022-07-24T13:59:29;2.25;;;1.52;;
70667;SDS011;58242;51.250;-1.118;2022-07-24T14:01:55;1.55;;;1.45;;
70667;SDS011;58242;51.250;-1.118;2022-07-24T14:04:21;2.15;;;1.90;;
70667;SDS011;58242;51.250;-1.118;2022-07-24T14:06:46;2.65;;;1.50;;
70667;SDS011;58242;51.250;-1.118;2022-07-24T14:09:11;2.10;;;1.70;;
70667;SDS011;58242;51.250;-1.118;2022-07-24T14:11:37;1.70;;;1.58;;
70667;SDS011;58242;51.250;-1.118;2022-07-24T14:14:02;2.38;;;1.40;;
70667;SDS011;58242;51.250;-1.118;2022-07-24T14:16:28;1.40;;;1.30;;
70667;SDS011;58242;51.250;-1.118;2022-07-24T14:18:53;1.60;;;1.50;;
70667;SDS011;58242;51.250;-1.118;2022-07-24T14:21:19;1.70;;;1.50;;
70667;SDS011;58242;51.250;-1.118;2022-07-24T14:23:44;1.52;;;1.40;;
70667;SDS011;58242;51.250;-1.118;2022-07-24T14:26:09;1.35;;;1.33;;
70667;SDS011;58242;51.250;-1.118;2022-07-24T14:28:35;2.03;;;1.60;;
70667;SDS011;58242;51.250;-1.118;2022-07-24T14:31:00;1.40;;;1.30;;
70667;SDS011;58242;51.250;-1.118;2022-07-24T14:33:26;1.50;;;1.40;;
70667;SDS011;58242;51.250;-1.118;2022-07-24T14:35:51;5.05;;;1.60;;
70667;SDS011;58242;51.250;-1.118;2022-07-24T14:38:16;1.67;;;1.42;;
70667;SDS011;58242;51.250;-1.118;2022-07-24T14:40:42;1.77;;;1.55;;
70667;SDS011;58242;51.250;-1.118;2022-07-24T14:43:07;2.00;;;1.80;;
70667;SDS011;58242;51.250;-1.118;2022-07-24T14:45:33;2.15;;;1.60;;
70667;SDS011;58242;51.250;-1.118;2022-07-24T14:47:58;1.40;;;1.30;;
70667;SDS011;58242;51.250;-1.118;2022-07-24T14:50:23;2.08;;;1.35;;
70667;SDS011;58242;51.250;-1.118;2022-07-24T14:52:49;2.88;;;1.60;;
70667;SDS011;58242;51.250;-1.118;2022-07-24T14:55:14;2.00;;;1.45;;
70667;SDS011;58242;51.250;-1.118;2022-07-24T14:57:40;1.38;;;1.27;;
70667;SDS011;58242;51.250;-1.118;2022-07-24T15:00:06;1.45;;;1.35;;
70667;SDS011;58242;51.250;-1.118;2022-07-24T15:02:32;1.75;;;1.40;;
70667;SDS011;58242;51.250;-1.118;2022-07-24T15:04:58;1.50;;;1.40;;
70667;SDS011;58242;51.250;-1.118;2022-07-24T15:07:23;1.63;;;1.52;;
70667;SDS011;58242;51.250;-1.118;2022-07-24T15:09:49;1.65;;;1.35;;
70667;SDS011;58242;51.250;-1.118;2022-07-24T15:12:14;2.53;;;1.35;;
70667;SDS011;58242;51.250;-1.118;2022-07-24T15:14:39;1.67;;;1.48;;
70667;SDS011;58242;51.250;-1.118;2022-07-24T15:17:05;2.00;;;1.30;;
70667;SDS011;58242;51.250;-1.118;2022-07-24T15:19:30;1.80;;;1.70;;
70667;SDS011;58242;51.250;-1.118;2022-07-24T15:21:55;3.00;;;1.67;;
70667;SDS011;58242;51.250;-1.118;2022-07-24T15:24:21;1.60;;;1.50;;
70667;SDS011;58242;51.250;-1.118;2022-07-24T15:26:46;2.10;;;1.80;;
70667;SDS011;58242;51.250;-1.118;2022-07-24T15:29:14;2.38;;;2.17;;
70667;SDS011;58242;51.250;-1.118;2022-07-24T15:31:39;2.20;;;1.98;;